createdAt,value
2023-09-24T00:01:16.206Z,1.67
2023-09-24T00:03:43.993Z,1.60
2023-09-24T00:06:11.456Z,1.95
2023-09-24T00:08:41.436Z,2.15
2023-09-24T00:11:09.868Z,1.90
2023-09-24T00:13:37.499Z,1.65
2023-09-24T00:16:08.583Z,2.20
2023-09-24T00:18:37.348Z,2.10
2023-09-24T00:21:08.879Z,2.20
2023-09-24T00:23:36.007Z,1.90
2023-09-24T00:26:03.204Z,1.70
2023-09-24T00:28:30.548Z,1.63
2023-09-24T00:30:58.248Z,2.10
2023-09-24T00:33:26.727Z,2.08
2023-09-24T00:35:55.206Z,2.58
2023-09-24T00:38:22.947Z,2.25
2023-09-24T00:40:50.584Z,1.63
2023-09-24T00:43:34.527Z,1.95
2023-09-24T00:46:08.426Z,1.70
2023-09-24T00:48:35.859Z,2.05
2023-09-24T00:51:26.518Z,2.42
2023-09-24T00:53:55.377Z,1.88
2023-09-24T00:56:24.850Z,2.05
2023-09-24T00:58:53.297Z,2.67
2023-09-24T01:01:26.108Z,1.98
2023-09-24T01:03:55.056Z,2.53
2023-09-24T01:06:22.985Z,2.30
2023-09-24T01:08:52.866Z,2.03
2023-09-24T01:11:20.769Z,2.42
2023-09-24T01:13:48.372Z,2.17
2023-09-24T01:16:16.483Z,2.00
2023-09-24T01:18:48.631Z,2.72
2023-09-24T01:21:19.458Z,2.25
2023-09-24T01:23:48.766Z,1.83
2023-09-24T01:26:18.474Z,2.45
2023-09-24T01:28:45.524Z,2.13
2023-09-24T01:31:13.253Z,1.73
2023-09-24T01:36:12.356Z,1.80
2023-09-24T01:38:43.300Z,2.08
2023-09-24T01:41:12.450Z,1.92
2023-09-24T01:43:44.137Z,2.67
2023-09-24T01:46:18.003Z,2.10
2023-09-24T01:48:45.481Z,1.98
2023-09-24T01:51:12.997Z,2.10
2023-09-24T01:53:43.645Z,2.53
2023-09-24T01:56:10.957Z,2.20
2023-09-24T01:58:41.171Z,2.03
2023-09-24T02:01:09.262Z,2.25
2023-09-24T02:03:40.668Z,2.33
2023-09-24T02:06:09.960Z,2.10
2023-09-24T02:08:38.253Z,1.85
2023-09-24T02:11:05.607Z,2.30
2023-09-24T02:13:32.771Z,2.53
2023-09-24T02:16:02.774Z,2.20
2023-09-24T02:18:34.215Z,2.47
2023-09-24T02:21:01.850Z,2.83
2023-09-24T02:23:29.411Z,2.20
2023-09-24T02:25:57.086Z,2.00
2023-09-24T02:28:25.625Z,1.77
2023-09-24T02:30:54.785Z,2.60
2023-09-24T02:33:22.472Z,1.95
2023-09-24T02:35:50.920Z,2.70
2023-09-24T02:38:18.256Z,2.13
2023-09-24T02:40:45.138Z,2.25
2023-09-24T02:43:12.805Z,2.15
2023-09-24T02:45:40.149Z,2.10
2023-09-24T02:48:08.005Z,2.30
2023-09-24T02:50:35.313Z,2.80
2023-09-24T02:53:06.131Z,2.70
2023-09-24T02:55:33.999Z,2.30
2023-09-24T02:58:01.084Z,2.15
2023-09-24T03:00:34.942Z,2.30
2023-09-24T03:03:03.662Z,2.67
2023-09-24T03:05:33.198Z,2.22
2023-09-24T03:08:02.032Z,1.80
2023-09-24T03:10:31.501Z,2.47
2023-09-24T03:12:59.194Z,2.20
2023-09-24T03:15:29.183Z,2.28
2023-09-24T03:17:56.559Z,2.20
2023-09-24T03:20:24.317Z,2.20
2023-09-24T03:22:58.609Z,2.45
2023-09-24T03:25:27.369Z,1.83
2023-09-24T03:27:59.559Z,2.15
2023-09-24T03:30:27.431Z,2.20
2023-09-24T03:32:55.540Z,2.38
2023-09-24T03:35:28.037Z,2.13
2023-09-24T03:38:00.485Z,2.10
2023-09-24T03:40:29.763Z,2.20
2023-09-24T03:43:01.124Z,3.30
2023-09-24T03:45:28.494Z,1.85
2023-09-24T03:47:56.911Z,2.40
2023-09-24T03:50:24.100Z,2.83
2023-09-24T03:52:53.025Z,2.58
2023-09-24T03:55:21.887Z,3.08
2023-09-24T03:57:50.547Z,3.05
2023-09-24T04:00:23.033Z,3.50
2023-09-24T04:02:53.731Z,3.25
2023-09-24T04:05:24.327Z,2.90
2023-09-24T04:07:56.201Z,4.00
2023-09-24T04:10:28.470Z,3.83
2023-09-24T04:12:56.188Z,3.45
2023-09-24T04:15:28.918Z,3.90
2023-09-24T04:18:01.913Z,3.97
2023-09-24T04:20:31.359Z,4.53
2023-09-24T04:23:00.169Z,4.03
2023-09-24T04:25:28.495Z,4.68
2023-09-24T04:27:56.418Z,4.18
2023-09-24T04:30:25.674Z,3.17
2023-09-24T04:32:53.647Z,4.38
2023-09-24T04:35:24.466Z,4.22
2023-09-24T04:37:53.526Z,3.63
2023-09-24T04:40:21.166Z,3.42
2023-09-24T04:42:51.757Z,3.60
2023-09-24T04:45:20.917Z,3.45
2023-09-24T04:47:50.847Z,3.42
2023-09-24T04:50:19.295Z,3.33
2023-09-24T04:52:49.147Z,3.55
2023-09-24T04:55:17.145Z,3.35
2023-09-24T04:57:47.293Z,2.72
2023-09-24T05:00:17.747Z,3.17
2023-09-24T05:02:46.786Z,3.20
2023-09-24T05:05:14.108Z,3.28
2023-09-24T05:07:42.135Z,3.65
2023-09-24T05:12:36.918Z,2.63
2023-09-24T05:15:04.858Z,2.97
2023-09-24T05:17:36.972Z,5.10
2023-09-24T05:20:05.084Z,3.97
2023-09-24T05:22:32.040Z,3.63
2023-09-24T05:25:00.037Z,3.35
2023-09-24T05:27:32.030Z,2.83
2023-09-24T05:29:59.137Z,3.75
2023-09-24T05:32:29.873Z,3.15
2023-09-24T05:34:57.120Z,3.17
2023-09-24T05:37:25.976Z,3.22
2023-09-24T05:39:53.346Z,3.53
2023-09-24T05:42:20.813Z,3.35
2023-09-24T05:44:48.090Z,3.65
2023-09-24T05:47:18.057Z,3.65
2023-09-24T05:49:44.905Z,3.58
2023-09-24T05:52:12.553Z,4.13
2023-09-24T05:54:42.105Z,3.55
2023-09-24T05:57:09.314Z,3.00
2023-09-24T05:59:36.562Z,3.45
2023-09-24T06:02:03.346Z,3.35
2023-09-24T06:04:32.009Z,2.90
2023-09-24T06:07:10.896Z,2.92
2023-09-24T06:09:38.138Z,3.08
2023-09-24T06:12:08.935Z,2.50
2023-09-24T06:14:36.016Z,3.20
2023-09-24T06:17:05.115Z,3.63
2023-09-24T06:19:33.760Z,2.92
2023-09-24T06:22:00.775Z,2.47
2023-09-24T06:24:28.270Z,3.42
2023-09-24T06:26:55.118Z,3.38
2023-09-24T06:29:21.902Z,3.63
2023-09-24T06:31:49.764Z,3.72
2023-09-24T06:34:16.734Z,3.83
2023-09-24T06:36:44.309Z,4.05
2023-09-24T06:39:16.148Z,2.85
2023-09-24T06:41:43.995Z,3.33
2023-09-24T06:44:15.461Z,3.35
2023-09-24T06:46:42.518Z,4.85
2023-09-24T06:49:09.301Z,3.90
2023-09-24T06:51:36.173Z,3.47
2023-09-24T06:54:04.009Z,4.25
2023-09-24T06:56:33.075Z,3.80
2023-09-24T06:59:00.287Z,4.47
2023-09-24T07:01:27.690Z,3.60
2023-09-24T07:03:55.250Z,3.72
2023-09-24T07:06:22.967Z,5.25
2023-09-24T07:08:51.764Z,3.03
2023-09-24T07:11:25.812Z,3.63
2023-09-24T07:13:53.817Z,2.97
2023-09-24T07:16:24.504Z,3.90
2023-09-24T07:18:53.291Z,3.88
2023-09-24T07:21:35.505Z,3.53
2023-09-24T07:24:10.474Z,4.60
2023-09-24T07:26:37.952Z,4.97
2023-09-24T07:29:05.036Z,3.90
2023-09-24T07:31:32.670Z,4.30
2023-09-24T07:34:03.302Z,3.45
2023-09-24T07:36:44.909Z,3.83
2023-09-24T07:39:16.311Z,4.05
2023-09-24T07:41:44.551Z,3.67
2023-09-24T07:44:11.736Z,4.10
2023-09-24T07:46:38.914Z,3.10
2023-09-24T07:49:07.724Z,2.97
2023-09-24T07:51:34.896Z,2.88
2023-09-24T07:54:03.303Z,3.10
2023-09-24T07:56:31.572Z,3.53
2023-09-24T08:01:26.121Z,2.40
2023-09-24T08:03:54.151Z,2.70
2023-09-24T08:06:21.298Z,2.22
2023-09-24T08:08:53.110Z,2.83
2023-09-24T08:11:25.244Z,1.92
2023-09-24T08:13:54.533Z,2.10
2023-09-24T08:16:23.224Z,2.15
2023-09-24T08:18:51.796Z,1.73
2023-09-24T08:21:20.551Z,2.03
2023-09-24T08:23:49.373Z,2.45
2023-09-24T08:26:16.348Z,1.60
2023-09-24T08:28:44.988Z,2.85
2023-09-24T08:31:13.345Z,2.70
2023-09-24T08:33:40.234Z,2.00
2023-09-24T08:36:12.601Z,1.55
2023-09-24T08:38:39.720Z,1.50
2023-09-24T08:41:15.005Z,1.27
2023-09-24T08:43:44.125Z,1.20
2023-09-24T08:46:13.112Z,0.90
2023-09-24T08:48:42.818Z,1.20
2023-09-24T08:51:11.545Z,1.25
2023-09-24T08:53:40.985Z,1.33
2023-09-24T08:56:10.256Z,1.10
2023-09-24T08:58:39.597Z,1.10
2023-09-24T09:01:11.226Z,1.80
2023-09-24T09:04:01.030Z,1.20
2023-09-24T09:06:40.224Z,1.05
2023-09-24T09:09:11.467Z,1.00
2023-09-24T09:11:45.163Z,0.98
2023-09-24T09:14:12.694Z,0.90
2023-09-24T09:17:14.914Z,1.13
2023-09-24T09:19:59.843Z,1.10
2023-09-24T09:22:29.164Z,1.40
2023-09-24T09:25:06.535Z,1.20
2023-09-24T09:27:48.286Z,0.93
2023-09-24T09:30:19.955Z,0.70
2023-09-24T09:32:48.876Z,1.40
2023-09-24T09:35:17.756Z,0.80
2023-09-24T09:37:45.417Z,1.17
2023-09-24T09:40:13.397Z,1.27
2023-09-24T09:42:43.185Z,0.80
2023-09-24T09:45:11.575Z,1.75
2023-09-24T09:48:19.648Z,0.85
2023-09-24T09:50:47.932Z,0.70
2023-09-24T09:53:18.420Z,1.23
2023-09-24T09:55:47.723Z,0.90
2023-09-24T09:58:23.648Z,1.08
2023-09-24T10:00:54.499Z,1.02
2023-09-24T10:03:23.555Z,0.98
2023-09-24T10:05:52.240Z,1.30
2023-09-24T10:08:44.438Z,0.82
2023-09-24T10:11:13.613Z,1.10
2023-09-24T10:13:51.416Z,0.90
2023-09-24T10:16:30.874Z,1.00
2023-09-24T10:19:12.889Z,0.70
2023-09-24T10:21:45.783Z,0.93
2023-09-24T10:24:13.935Z,1.05
2023-09-24T10:27:14.027Z,0.73
2023-09-24T10:29:57.239Z,0.90
2023-09-24T10:32:25.211Z,0.90
2023-09-24T10:37:29.236Z,0.70
2023-09-24T10:40:07.874Z,1.40
2023-09-24T10:43:08.661Z,1.00
2023-09-24T10:45:38.646Z,0.90
2023-09-24T10:48:06.926Z,0.80
2023-09-24T10:50:34.364Z,0.88
2023-09-24T10:53:03.929Z,0.80
2023-09-24T10:55:38.490Z,1.00
2023-09-24T10:58:13.136Z,0.80
2023-09-24T11:00:42.733Z,0.70
2023-09-24T11:03:12.420Z,0.68
2023-09-24T11:05:43.646Z,1.35
2023-09-24T11:08:12.060Z,1.20
2023-09-24T11:10:39.061Z,0.80
2023-09-24T11:13:09.602Z,0.90
2023-09-24T11:15:38.905Z,1.15
2023-09-24T11:18:07.520Z,0.55
2023-09-24T11:20:39.622Z,0.90
2023-09-24T11:23:13.170Z,0.85
2023-09-24T11:25:40.396Z,0.40
2023-09-24T11:28:10.230Z,0.80
2023-09-24T11:30:51.049Z,1.75
2023-09-24T11:33:24.320Z,0.50
2023-09-24T11:35:53.220Z,0.60
2023-09-24T11:38:30.647Z,0.60
2023-09-24T11:41:14.815Z,1.00
2023-09-24T11:43:44.065Z,1.10
2023-09-24T11:46:31.779Z,0.82
2023-09-24T11:49:01.149Z,0.95
2023-09-24T11:51:29.634Z,0.98
2023-09-24T11:53:56.704Z,0.75
2023-09-24T11:56:25.160Z,1.05
2023-09-24T11:58:52.145Z,1.05
2023-09-24T12:01:18.978Z,0.90
2023-09-24T12:03:47.502Z,1.33
2023-09-24T12:06:15.759Z,0.80
2023-09-24T12:08:43.894Z,0.55
2023-09-24T12:11:10.935Z,0.70
2023-09-24T12:13:41.692Z,0.60
2023-09-24T12:16:08.910Z,0.70
2023-09-24T12:18:42.041Z,0.80
2023-09-24T12:21:09.697Z,0.98
2023-09-24T12:23:36.782Z,0.57
2023-09-24T12:26:04.507Z,0.50
2023-09-24T12:28:39.007Z,0.95
2023-09-24T12:31:10.853Z,0.80
2023-09-24T12:33:41.678Z,1.05
2023-09-24T12:36:09.154Z,1.05
2023-09-24T12:38:39.197Z,0.60
2023-09-24T12:41:08.704Z,0.73
2023-09-24T12:43:35.921Z,0.88
2023-09-24T12:46:13.248Z,0.70
2023-09-24T12:48:41.178Z,0.88
2023-09-24T12:53:44.208Z,0.52
2023-09-24T12:56:11.630Z,0.90
2023-09-24T12:58:38.544Z,0.50
2023-09-24T13:01:06.565Z,0.82
2023-09-24T13:03:34.956Z,0.75
2023-09-24T13:06:01.839Z,0.70
2023-09-24T13:08:29.055Z,0.60
2023-09-24T13:10:58.658Z,1.08
2023-09-24T13:13:27.481Z,0.82
2023-09-24T13:15:54.561Z,0.90
2023-09-24T13:18:25.177Z,0.75
2023-09-24T13:20:52.431Z,1.42
2023-09-24T13:23:19.453Z,0.85
2023-09-24T13:25:46.781Z,1.35
2023-09-24T13:28:13.661Z,0.70
2023-09-24T13:30:41.781Z,0.70
2023-09-24T13:33:09.704Z,0.73
2023-09-24T13:35:41.533Z,0.80
2023-09-24T13:38:09.226Z,0.73
2023-09-24T13:40:39.429Z,0.90
2023-09-24T13:43:11.605Z,0.70
2023-09-24T13:45:47.500Z,0.88
2023-09-24T13:48:14.620Z,1.25
2023-09-24T13:50:41.582Z,0.55
2023-09-24T13:53:10.231Z,0.55
2023-09-24T13:55:38.418Z,0.70
2023-09-24T13:58:08.593Z,0.77
2023-09-24T14:00:36.097Z,0.73
2023-09-24T14:03:03.200Z,0.60
2023-09-24T14:05:33.784Z,0.68
2023-09-24T14:08:22.012Z,0.93
2023-09-24T14:11:10.599Z,0.60
2023-09-24T14:13:42.235Z,0.80
2023-09-24T14:16:13.449Z,0.73
2023-09-24T14:18:41.201Z,0.50
2023-09-24T14:21:12.964Z,0.88
2023-09-24T14:23:41.237Z,0.50
2023-09-24T14:26:09.842Z,0.57
2023-09-24T14:28:39.511Z,0.50
2023-09-24T14:31:07.672Z,0.47
2023-09-24T14:33:40.800Z,0.40
2023-09-24T14:36:11.373Z,0.60
2023-09-24T14:38:39.085Z,0.50
2023-09-24T14:41:15.555Z,0.70
2023-09-24T14:43:43.138Z,0.85
2023-09-24T14:46:10.703Z,0.70
2023-09-24T14:48:38.308Z,0.55
2023-09-24T14:51:08.769Z,0.50
2023-09-24T14:53:36.630Z,0.73
2023-09-24T14:56:05.423Z,0.60
2023-09-24T14:58:32.716Z,0.73
2023-09-24T15:01:08.322Z,0.70
2023-09-24T15:03:38.935Z,0.82
2023-09-24T15:06:09.237Z,0.70
2023-09-24T15:08:37.383Z,0.63
2023-09-24T15:11:08.268Z,0.57
2023-09-24T15:13:40.017Z,0.63
2023-09-24T15:16:10.678Z,0.60
2023-09-24T15:18:40.584Z,0.85
2023-09-24T15:21:15.261Z,0.85
2023-09-24T15:23:46.134Z,1.10
2023-09-24T15:26:12.928Z,0.50
2023-09-24T15:28:43.202Z,0.60
2023-09-24T15:31:11.475Z,0.60
2023-09-24T15:33:38.516Z,0.60
2023-09-24T15:36:10.402Z,0.60
2023-09-24T15:38:38.571Z,0.45
2023-09-24T15:41:08.584Z,0.55
2023-09-24T15:43:35.643Z,0.52
2023-09-24T15:46:03.142Z,0.80
2023-09-24T15:48:30.251Z,0.45
2023-09-24T15:50:58.346Z,0.57
2023-09-24T15:53:26.268Z,0.45
2023-09-24T15:55:55.665Z,0.70
2023-09-24T15:58:24.930Z,0.82
2023-09-24T16:00:52.126Z,0.70
2023-09-24T16:03:21.129Z,0.70
2023-09-24T16:05:49.350Z,0.60
2023-09-24T16:08:16.631Z,1.02
2023-09-24T16:10:46.047Z,0.70
2023-09-24T16:13:14.107Z,0.70
2023-09-24T16:15:41.403Z,0.43
2023-09-24T16:18:08.312Z,1.00
2023-09-24T16:20:36.791Z,0.80
2023-09-24T16:23:04.657Z,0.70
2023-09-24T16:25:32.346Z,0.65
2023-09-24T16:28:00.216Z,0.70
2023-09-24T16:30:27.391Z,0.73
2023-09-24T16:32:54.345Z,0.65
2023-09-24T16:35:21.570Z,1.00
2023-09-24T16:37:49.937Z,0.75
2023-09-24T16:40:20.359Z,0.63
2023-09-24T16:42:50.506Z,0.80
2023-09-24T16:45:17.470Z,0.80
2023-09-24T16:47:47.057Z,0.95
2023-09-24T16:50:14.507Z,0.80
2023-09-24T16:52:41.685Z,0.60
2023-09-24T16:55:09.143Z,0.73
2023-09-24T16:57:40.194Z,0.60
2023-09-24T17:00:12.913Z,0.55
2023-09-24T17:02:40.128Z,0.70
2023-09-24T17:05:07.499Z,0.75
2023-09-24T17:07:35.001Z,1.00
2023-09-24T17:10:03.761Z,0.98
2023-09-24T17:14:57.860Z,0.73
2023-09-24T17:17:25.056Z,0.80
2023-09-24T17:19:51.852Z,1.10
2023-09-24T17:22:19.259Z,0.70
2023-09-24T17:24:49.816Z,0.70
2023-09-24T17:27:17.648Z,0.80
2023-09-24T17:29:44.771Z,0.43
2023-09-24T17:32:11.620Z,0.60
2023-09-24T17:34:39.546Z,0.75
2023-09-24T17:37:07.229Z,0.68
2023-09-24T17:39:34.987Z,1.38
2023-09-24T17:42:02.387Z,0.70
2023-09-24T17:44:30.345Z,1.13
2023-09-24T17:49:24.172Z,0.98
2023-09-24T17:51:52.585Z,0.90
2023-09-24T17:54:20.088Z,0.90
2023-09-24T17:56:48.106Z,2.00
2023-09-24T17:59:15.370Z,0.80
2023-09-24T18:01:42.348Z,1.13
2023-09-24T18:04:09.887Z,1.05
2023-09-24T18:06:40.959Z,0.90
2023-09-24T18:09:08.770Z,0.80
2023-09-24T18:11:36.568Z,1.20
2023-09-24T18:14:03.681Z,1.10
2023-09-24T18:16:30.810Z,1.20
2023-09-24T18:18:57.694Z,1.15
2023-09-24T18:21:25.012Z,1.00
2023-09-24T18:23:52.652Z,1.52
2023-09-24T18:26:21.296Z,1.00
2023-09-24T18:28:48.680Z,1.48
2023-09-24T18:31:15.825Z,0.95
2023-09-24T18:33:43.420Z,0.93
2023-09-24T18:36:10.235Z,1.20
2023-09-24T18:38:38.075Z,1.40
2023-09-24T18:41:05.134Z,0.82
2023-09-24T18:43:32.009Z,1.10
2023-09-24T18:46:02.647Z,1.40
2023-09-24T18:48:30.661Z,1.00
2023-09-24T18:53:27.555Z,1.30
2023-09-24T18:56:06.561Z,1.27
2023-09-24T18:58:33.800Z,1.30
2023-09-24T19:01:06.400Z,1.50
2023-09-24T19:03:33.895Z,1.23
2023-09-24T19:06:10.987Z,2.22
2023-09-24T19:08:38.694Z,1.30
2023-09-24T19:11:09.970Z,1.27
2023-09-24T19:13:36.804Z,1.70
2023-09-24T19:16:05.766Z,1.30
2023-09-24T19:18:35.788Z,1.40
2023-09-24T19:21:05.196Z,1.27
2023-09-24T19:23:33.896Z,1.85
2023-09-24T19:26:18.682Z,0.95
2023-09-24T19:28:47.492Z,1.35
2023-09-24T19:31:16.078Z,1.20
2023-09-24T19:33:44.135Z,1.20
2023-09-24T19:36:13.421Z,1.38
2023-09-24T19:38:41.313Z,2.25
2023-09-24T19:41:11.533Z,1.48
2023-09-24T19:43:40.769Z,1.67
2023-09-24T19:48:41.635Z,1.48
2023-09-24T19:51:09.186Z,1.13
2023-09-24T19:53:38.779Z,1.45
2023-09-24T19:56:06.966Z,1.30
2023-09-24T19:58:37.439Z,1.80
2023-09-24T20:01:06.993Z,1.40
2023-09-24T20:03:34.720Z,1.45
2023-09-24T20:06:07.930Z,1.70
2023-09-24T20:08:37.134Z,1.40
2023-09-24T20:11:08.924Z,1.60
2023-09-24T20:13:41.414Z,1.38
2023-09-24T20:16:09.549Z,1.77
2023-09-24T20:18:40.776Z,1.40
2023-09-24T20:21:16.539Z,1.45
2023-09-24T20:23:43.652Z,1.55
2023-09-24T20:26:13.316Z,1.63
2023-09-24T20:28:53.142Z,1.42
2023-09-24T20:31:21.766Z,1.80
2023-09-24T20:34:00.736Z,1.40
2023-09-24T20:36:29.576Z,1.83
2023-09-24T20:39:07.873Z,1.70
2023-09-24T20:41:38.926Z,1.58
2023-09-24T20:44:09.097Z,1.80
2023-09-24T20:46:44.291Z,1.52
2023-09-24T20:49:11.805Z,1.75
2023-09-24T20:51:39.833Z,1.65
2023-09-24T20:54:07.739Z,1.48
2023-09-24T20:56:37.882Z,1.52
2023-09-24T20:59:17.645Z,2.03
2023-09-24T21:01:48.921Z,1.35
2023-09-24T21:04:16.820Z,1.30
2023-09-24T21:06:44.889Z,1.50
2023-09-24T21:09:12.302Z,1.17
2023-09-24T21:11:39.493Z,1.50
2023-09-24T21:14:07.182Z,1.50
2023-09-24T21:16:34.030Z,1.38
2023-09-24T21:19:02.137Z,1.13
2023-09-24T21:21:32.308Z,1.65
2023-09-24T21:23:59.228Z,1.52
2023-09-24T21:26:28.654Z,1.45
2023-09-24T21:28:56.844Z,1.13
2023-09-24T21:31:28.064Z,1.30
2023-09-24T21:33:55.749Z,1.27
2023-09-24T21:36:27.537Z,1.27
2023-09-24T21:38:55.495Z,1.50
2023-09-24T21:41:24.194Z,1.33
2023-09-24T21:43:51.742Z,1.25
2023-09-24T21:46:18.771Z,1.15
2023-09-24T21:48:53.906Z,1.17
2023-09-24T21:51:22.704Z,1.30
2023-09-24T21:53:55.004Z,1.10
2023-09-24T21:56:24.204Z,1.20
2023-09-24T21:58:51.961Z,1.27
2023-09-24T22:01:19.506Z,1.10
2023-09-24T22:03:47.937Z,1.23
2023-09-24T22:06:15.552Z,1.00
2023-09-24T22:08:43.715Z,1.20
2023-09-24T22:13:39.134Z,1.02
2023-09-24T22:16:10.816Z,1.02
2023-09-24T22:18:41.499Z,1.20
2023-09-24T22:21:09.094Z,0.80
2023-09-24T22:23:36.637Z,1.05
2023-09-24T22:26:05.137Z,1.00
2023-09-24T22:28:32.093Z,1.42
2023-09-24T22:31:10.348Z,1.50
2023-09-24T22:33:40.431Z,0.70
2023-09-24T22:36:15.115Z,0.90
2023-09-24T22:38:42.473Z,0.95
2023-09-24T22:41:09.433Z,0.73
2023-09-24T22:43:38.718Z,1.10
2023-09-24T22:46:08.481Z,1.38
2023-09-24T22:48:35.867Z,0.80
2023-09-24T22:51:04.106Z,1.15
2023-09-24T22:53:32.555Z,1.23
2023-09-24T22:56:02.477Z,1.10
2023-09-24T22:58:29.381Z,1.20
2023-09-24T23:00:56.948Z,1.08
2023-09-24T23:03:23.998Z,1.33
2023-09-24T23:05:55.480Z,0.88
2023-09-24T23:08:24.687Z,0.98
2023-09-24T23:10:52.612Z,1.50
2023-09-24T23:13:20.377Z,1.48
2023-09-24T23:15:50.693Z,1.13
2023-09-24T23:18:17.856Z,1.20
2023-09-24T23:20:49.823Z,0.85
2023-09-24T23:23:19.033Z,0.93
2023-09-24T23:25:47.322Z,0.88
2023-09-24T23:28:15.246Z,1.38
2023-09-24T23:30:45.615Z,1.40
2023-09-24T23:33:13.781Z,1.30
2023-09-24T23:38:12.499Z,1.55
2023-09-24T23:40:40.746Z,1.40
2023-09-24T23:45:41.082Z,1.10
2023-09-24T23:48:11.312Z,1.27
2023-09-24T23:50:39.115Z,1.50
2023-09-24T23:53:09.762Z,1.55
2023-09-24T23:55:36.990Z,1.35
2023-09-24T23:58:07.431Z,1.40
